Terminal Aerodrome Forecast
Issued by NWS

Home | Current Version | Previous Version | Text Only | Print | Product List | Glossary On
Versions: 1 2 3 4 5 6 7 8 9 10 11 12 13 14 15 16 17 18 19 20 21
217
FTUS43 KDLH 231139
TAFHYR
TAF
KHYR 231139Z 2312/2412 20009KT P6SM SKC WS020/20035KT
     FM231400 19012G20KT P6SM SCT250
     FM231600 19013G22KT P6SM BKN250
     FM240100 18009KT P6SM SCT060 BKN150
     FM240800 18007KT 3SM -SHRA BR BKN040
      TEMPO 2409/2412 2SM -SHRA BR BKN012=

USA.gov is the U.S. government's official web portal to all federal, state and local government web resources and services.